createdAt,value
2022-09-21T00:01:28.029Z,6.80
2022-09-21T00:03:57.411Z,6.70
2022-09-21T00:06:28.476Z,6.70
2022-09-21T00:08:56.932Z,6.70
2022-09-21T00:11:27.988Z,6.70
2022-09-21T00:13:58.889Z,6.80
2022-09-21T00:16:26.898Z,6.80
2022-09-21T00:18:55.402Z,6.70
2022-09-21T00:21:24.423Z,6.80
2022-09-21T00:23:54.290Z,6.80
2022-09-21T00:26:24.926Z,6.80
2022-09-21T00:28:55.379Z,6.80
2022-09-21T00:31:24.283Z,6.70
2022-09-21T00:33:52.733Z,6.60
2022-09-21T00:36:22.442Z,6.50
2022-09-21T00:38:53.873Z,6.40
2022-09-21T00:41:22.427Z,6.30
2022-09-21T00:44:08.841Z,6.20
2022-09-21T00:46:40.133Z,6.20
2022-09-21T00:49:08.563Z,6.00
2022-09-21T00:51:37.486Z,6.00
2022-09-21T00:54:12.237Z,6.00
2022-09-21T00:56:40.447Z,5.90
2022-09-21T00:59:10.667Z,5.70
2022-09-21T01:01:38.670Z,5.60
2022-09-21T01:04:08.730Z,5.50
2022-09-21T01:06:39.622Z,5.50
2022-09-21T01:09:10.164Z,5.30
2022-09-21T01:11:48.327Z,5.20
2022-09-21T01:14:44.041Z,5.20
2022-09-21T01:17:19.579Z,5.30
2022-09-21T01:20:10.917Z,5.30
2022-09-21T01:22:53.306Z,5.30
2022-09-21T01:25:33.017Z,5.40
2022-09-21T01:28:10.011Z,5.40
2022-09-21T01:30:43.730Z,5.40
2022-09-21T01:33:20.366Z,5.40
2022-09-21T01:35:50.490Z,5.40
2022-09-21T01:38:24.098Z,5.50
2022-09-21T01:40:56.917Z,5.60
2022-09-21T01:43:28.456Z,5.50
2022-09-21T01:46:02.122Z,5.50
2022-09-21T01:48:35.829Z,5.50
2022-09-21T01:51:08.281Z,5.40
2022-09-21T01:53:41.310Z,5.30
2022-09-21T01:56:14.584Z,5.30
2022-09-21T01:58:48.503Z,5.30
2022-09-21T02:01:22.221Z,5.20
2022-09-21T02:03:54.234Z,5.10
2022-09-21T02:06:22.583Z,5.10
2022-09-21T02:08:50.631Z,5.20
2022-09-21T02:11:18.574Z,5.20
2022-09-21T02:13:49.663Z,5.20
2022-09-21T02:16:36.196Z,5.10
2022-09-21T02:19:12.871Z,5.10
2022-09-21T02:21:51.395Z,5.20
2022-09-21T02:24:26.936Z,5.30
2022-09-21T02:27:00.459Z,5.30
2022-09-21T02:29:36.529Z,5.30
2022-09-21T02:32:12.720Z,5.30
2022-09-21T02:34:46.494Z,5.30
2022-09-21T02:37:22.243Z,5.30
2022-09-21T02:39:59.843Z,5.40
2022-09-21T02:42:32.116Z,5.40
2022-09-21T02:45:08.089Z,5.30
2022-09-21T02:47:42.897Z,5.40
2022-09-21T02:50:15.896Z,5.20
2022-09-21T02:52:45.471Z,5.20
2022-09-21T02:55:16.023Z,5.30
2022-09-21T02:57:44.702Z,5.30
2022-09-21T03:00:13.642Z,5.30
2022-09-21T03:02:45.552Z,5.20
2022-09-21T03:05:15.111Z,5.20
2022-09-21T03:07:43.253Z,5.20
2022-09-21T03:10:11.775Z,5.30
2022-09-21T03:12:39.741Z,5.30
2022-09-21T03:15:08.449Z,5.30
2022-09-21T03:17:36.428Z,5.20
2022-09-21T03:20:06.468Z,5.30
2022-09-21T03:22:34.447Z,5.30
2022-09-21T03:25:02.394Z,5.30
2022-09-21T03:27:30.355Z,5.20
2022-09-21T03:30:01.965Z,5.30
2022-09-21T03:32:30.434Z,5.40
2022-09-21T03:34:58.427Z,5.40
2022-09-21T03:37:27.822Z,5.40
2022-09-21T03:39:55.772Z,5.40
2022-09-21T03:42:23.688Z,5.30
2022-09-21T03:44:51.643Z,5.20
2022-09-21T03:47:20.649Z,5.20
2022-09-21T03:49:48.698Z,5.10
2022-09-21T03:52:16.605Z,5.00
2022-09-21T03:54:45.926Z,4.80
2022-09-21T03:57:13.851Z,4.70
2022-09-21T03:59:42.099Z,4.60
2022-09-21T04:02:10.049Z,4.50
2022-09-21T04:04:37.975Z,4.40
2022-09-21T04:07:06.009Z,4.40
2022-09-21T04:09:33.971Z,4.40
2022-09-21T04:12:03.606Z,4.50
2022-09-21T04:14:31.497Z,4.70
2022-09-21T04:16:59.454Z,4.60
2022-09-21T04:19:27.497Z,4.50
2022-09-21T04:21:56.147Z,4.50
2022-09-21T04:24:24.502Z,4.50
2022-09-21T04:26:52.489Z,4.50
2022-09-21T04:29:21.891Z,4.50
2022-09-21T04:31:49.885Z,4.60
2022-09-21T04:34:17.900Z,4.50
2022-09-21T04:36:45.934Z,4.40
2022-09-21T04:39:13.945Z,4.40
2022-09-21T04:41:42.186Z,4.40
2022-09-21T04:44:10.172Z,4.40
2022-09-21T04:46:39.550Z,4.50
2022-09-21T04:49:08.774Z,4.70
2022-09-21T04:51:36.829Z,4.80
2022-09-21T04:54:05.018Z,4.90
2022-09-21T04:56:33.058Z,5.00
2022-09-21T04:59:01.368Z,4.90
2022-09-21T05:01:29.520Z,4.80
2022-09-21T05:04:02.458Z,4.80
2022-09-21T05:06:31.029Z,4.70
2022-09-21T05:09:16.462Z,4.50
2022-09-21T05:11:44.515Z,4.50
2022-09-21T05:14:15.117Z,4.50
2022-09-21T05:16:44.758Z,4.50
2022-09-21T05:19:14.128Z,4.50
2022-09-21T05:21:45.205Z,4.70
2022-09-21T05:24:13.200Z,4.80
2022-09-21T05:26:41.163Z,4.90
2022-09-21T05:29:10.348Z,4.80
2022-09-21T05:31:43.410Z,5.00
2022-09-21T05:34:30.988Z,4.90
2022-09-21T05:37:08.120Z,4.90
2022-09-21T05:39:36.714Z,4.90
2022-09-21T05:42:05.628Z,4.90
2022-09-21T05:44:34.379Z,4.90
2022-09-21T05:47:13.521Z,5.10
2022-09-21T05:50:15.975Z,5.30
2022-09-21T05:52:50.404Z,5.50
2022-09-21T05:55:29.846Z,5.50
2022-09-21T05:58:07.561Z,5.50
2022-09-21T06:01:03.665Z,5.60
2022-09-21T06:03:39.730Z,5.70
2022-09-21T06:06:12.486Z,5.80
2022-09-21T06:08:42.311Z,5.90
2022-09-21T06:11:16.002Z,6.00
2022-09-21T06:13:45.765Z,6.10
2022-09-21T06:16:14.338Z,6.30
2022-09-21T06:18:43.537Z,6.40
2022-09-21T06:21:14.871Z,6.50
2022-09-21T06:23:43.330Z,6.50
2022-09-21T06:26:11.610Z,6.60
2022-09-21T06:28:45.732Z,6.60
2022-09-21T06:31:17.615Z,6.80
2022-09-21T06:33:54.372Z,7.30
2022-09-21T06:36:43.028Z,8.20
2022-09-21T06:39:43.988Z,9.10
2022-09-21T06:42:51.241Z,10.10
2022-09-21T07:16:13.383Z,13.80
2022-09-21T07:19:10.170Z,14.10
2022-09-21T07:22:30.186Z,13.40
2022-09-21T07:25:24.197Z,12.30
2022-09-21T07:31:30.158Z,10.40
2022-09-21T07:34:22.207Z,9.90
2022-09-21T07:36:50.500Z,9.50
2022-09-21T07:39:18.952Z,9.30
2022-09-21T07:41:48.921Z,9.20
2022-09-21T07:44:16.976Z,9.30
2022-09-21T07:46:48.386Z,9.30
2022-09-21T07:49:16.625Z,9.40
2022-09-21T07:51:44.904Z,9.50
2022-09-21T07:54:15.334Z,9.50
2022-09-21T07:57:00.574Z,9.60
2022-09-21T07:59:29.084Z,9.50
2022-09-21T08:01:58.684Z,9.50
2022-09-21T08:04:28.922Z,9.50
2022-09-21T08:06:58.607Z,9.50
2022-09-21T08:10:00.089Z,9.60
2022-09-21T08:12:29.721Z,9.60
2022-09-21T08:15:05.054Z,9.70
2022-09-21T08:17:44.245Z,9.70
2022-09-21T08:20:13.962Z,9.80
2022-09-21T08:22:47.168Z,9.90
2022-09-21T08:25:16.868Z,9.90
2022-09-21T08:27:46.297Z,10.00
2022-09-21T08:30:14.624Z,10.00
2022-09-21T08:32:51.595Z,10.10
2022-09-21T08:35:22.855Z,10.20
2022-09-21T08:37:58.050Z,10.30
2022-09-21T08:40:28.198Z,10.30
2022-09-21T08:43:07.808Z,10.40
2022-09-21T08:45:46.922Z,10.60
2022-09-21T08:48:28.283Z,10.70
2022-09-21T08:51:09.338Z,10.70
2022-09-21T08:53:39.911Z,10.80
2022-09-21T08:56:10.051Z,10.80
2022-09-21T08:58:43.483Z,10.80
2022-09-21T09:01:38.642Z,10.90
2022-09-21T09:04:33.623Z,11.10
2022-09-21T09:07:40.583Z,11.30
2022-09-21T09:10:21.024Z,11.30
2022-09-21T09:13:02.949Z,11.30
2022-09-21T09:15:46.812Z,11.40
2022-09-21T09:18:22.227Z,11.50
2022-09-21T09:21:02.912Z,11.60
2022-09-21T09:23:38.395Z,11.70
2022-09-21T09:26:12.070Z,11.70
2022-09-21T09:28:50.102Z,11.80
2022-09-21T09:31:47.432Z,11.80
2022-09-21T09:34:30.570Z,11.90
2022-09-21T09:37:27.771Z,12.10
2022-09-21T09:40:23.612Z,12.20
2022-09-21T09:43:04.775Z,12.40
2022-09-21T09:45:54.408Z,12.40
2022-09-21T09:49:21.398Z,12.40
2022-09-21T09:51:56.918Z,12.50
2022-09-21T09:54:58.743Z,12.70
2022-09-21T09:57:38.370Z,12.70
2022-09-21T10:00:29.005Z,12.70
2022-09-21T10:03:00.862Z,12.70
2022-09-21T10:05:38.725Z,12.60
2022-09-21T10:08:42.054Z,12.50
2022-09-21T10:11:19.120Z,12.60
2022-09-21T10:13:49.052Z,12.80
2022-09-21T10:16:24.226Z,12.90
2022-09-21T10:18:59.326Z,13.10
2022-09-21T10:21:34.424Z,13.10
2022-09-21T10:24:45.452Z,13.20
2022-09-21T10:27:25.582Z,13.40
2022-09-21T10:29:53.680Z,13.60
2022-09-21T10:32:27.252Z,13.70
2022-09-21T10:35:28.226Z,13.70
2022-09-21T10:38:24.603Z,13.70
2022-09-21T10:45:17.792Z,13.60
2022-09-21T10:47:52.486Z,13.90
2022-09-21T10:50:34.476Z,13.70
2022-09-21T10:53:24.474Z,13.80
2022-09-21T10:57:02.533Z,14.20
2022-09-21T11:17:12.888Z,14.60
2022-09-21T11:18:03.913Z,14.70
2022-09-21T11:20:40.660Z,14.80
2022-09-21T11:23:20.248Z,15.00
2022-09-21T11:25:55.965Z,14.90
2022-09-21T11:28:30.717Z,14.90
2022-09-21T11:31:22.188Z,14.90
2022-09-21T11:34:05.783Z,14.80
2022-09-21T11:36:45.004Z,15.00
2022-09-21T11:39:31.373Z,15.00
2022-09-21T11:42:16.176Z,15.00
2022-09-21T11:44:55.942Z,15.00
2022-09-21T11:47:44.746Z,14.70
2022-09-21T11:50:33.102Z,14.40
2022-09-21T11:53:16.255Z,14.40
2022-09-21T11:56:15.182Z,14.50
2022-09-21T11:59:10.613Z,14.30
2022-09-21T12:13:42.415Z,14.10
2022-09-21T12:23:22.408Z,15.00
2022-09-21T12:25:57.365Z,15.00
2022-09-21T12:28:38.697Z,15.20
2022-09-21T12:31:17.296Z,15.30
2022-09-21T12:33:56.933Z,15.60
2022-09-21T12:36:32.371Z,15.40
2022-09-21T12:39:14.895Z,15.30
2022-09-21T12:41:49.957Z,15.00
2022-09-21T12:44:28.636Z,14.70
2022-09-21T12:47:09.586Z,14.60
2022-09-21T12:49:44.664Z,14.40
2022-09-21T12:52:21.377Z,14.30
2022-09-21T12:55:02.936Z,14.40
2022-09-21T12:58:14.099Z,14.70
2022-09-21T13:00:50.771Z,14.90
2022-09-21T13:03:42.969Z,15.10
2022-09-21T13:06:37.941Z,15.20
2022-09-21T13:09:10.087Z,15.30
2022-09-21T13:11:54.604Z,15.30
2022-09-21T13:14:24.321Z,15.20
2022-09-21T13:17:02.790Z,14.90
2022-09-21T13:19:33.857Z,14.80
2022-09-21T13:22:37.553Z,14.60
2022-09-21T13:25:29.789Z,14.50
2022-09-21T13:28:04.817Z,14.40
2022-09-21T13:30:42.561Z,14.40
2022-09-21T13:33:42.255Z,14.50
2022-09-21T13:36:35.222Z,14.60
2022-09-21T13:39:29.235Z,14.50
2022-09-21T13:42:03.116Z,14.20
2022-09-21T13:44:46.279Z,14.10
2022-09-21T13:47:14.728Z,14.00
2022-09-21T13:49:54.023Z,14.10
2022-09-21T13:52:34.566Z,14.30
2022-09-21T13:55:05.502Z,14.10
2022-09-21T13:57:39.083Z,14.20
2022-09-21T14:00:39.095Z,14.40
2022-09-21T14:03:24.338Z,14.60
2022-09-21T14:06:17.265Z,14.80
2022-09-21T14:13:13.831Z,15.10
2022-09-21T14:16:20.845Z,15.10
2022-09-21T14:18:49.270Z,14.90
2022-09-21T14:21:28.109Z,14.60
2022-09-21T14:24:35.848Z,14.30
2022-09-21T14:27:14.940Z,14.00
2022-09-21T14:29:52.090Z,13.80
2022-09-21T14:32:26.647Z,13.90
2022-09-21T14:35:04.368Z,14.10
2022-09-21T14:37:51.738Z,14.20
2022-09-21T14:41:04.027Z,14.30
2022-09-21T14:52:32.409Z,14.30
2022-09-21T15:06:59.738Z,14.80
2022-09-21T15:30:34.609Z,14.10
2022-09-21T15:33:24.243Z,13.90
2022-09-21T15:36:01.769Z,13.80
2022-09-21T15:38:32.395Z,13.70
2022-09-21T15:41:04.336Z,13.70
2022-09-21T15:43:38.725Z,13.70
2022-09-21T15:46:10.620Z,13.60
2022-09-21T15:48:42.457Z,13.60
2022-09-21T15:51:17.096Z,13.60
2022-09-21T15:53:55.684Z,13.50
2022-09-21T15:56:42.013Z,13.40
2022-09-21T15:59:25.247Z,13.40
2022-09-21T16:01:59.570Z,13.40
2022-09-21T16:04:30.048Z,13.30
2022-09-21T16:07:09.397Z,13.30
2022-09-21T16:09:45.020Z,13.30
2022-09-21T16:12:43.693Z,13.30
2022-09-21T16:15:25.408Z,13.20
2022-09-21T16:18:01.475Z,13.10
2022-09-21T16:20:51.766Z,13.00
2022-09-21T16:23:24.110Z,13.00
2022-09-21T16:26:01.643Z,12.90
2022-09-21T16:28:36.427Z,12.90
2022-09-21T16:31:23.672Z,12.80
2022-09-21T16:34:20.359Z,12.70
2022-09-21T16:36:51.821Z,12.70
2022-09-21T16:39:21.069Z,12.50
2022-09-21T16:41:53.746Z,12.40
2022-09-21T16:44:25.777Z,12.30
2022-09-21T16:46:58.246Z,12.10
2022-09-21T16:49:31.378Z,11.90
2022-09-21T16:52:04.114Z,11.70
2022-09-21T16:54:34.633Z,11.50
2022-09-21T16:57:04.737Z,11.40
2022-09-21T16:59:33.287Z,11.30
2022-09-21T17:02:04.329Z,11.30
2022-09-21T17:04:35.920Z,11.30
2022-09-21T17:07:06.275Z,11.30
2022-09-21T17:09:36.159Z,11.20
2022-09-21T17:12:17.729Z,11.10
2022-09-21T17:14:47.485Z,11.10
2022-09-21T17:17:19.306Z,11.00
2022-09-21T17:19:49.974Z,10.90
2022-09-21T17:22:20.528Z,10.80
2022-09-21T17:24:55.238Z,10.70
2022-09-21T17:27:31.862Z,10.50
2022-09-21T17:30:02.679Z,10.40
2022-09-21T17:32:36.476Z,10.40
2022-09-21T17:47:23.388Z,10.50
2022-09-21T17:58:04.950Z,10.30
2022-09-21T18:01:02.491Z,10.20
2022-09-21T18:17:20.856Z,9.90
2022-09-21T19:12:46.095Z,9.40
2022-09-21T19:19:20.638Z,9.30
2022-09-21T19:22:03.008Z,9.20
2022-09-21T19:27:56.926Z,9.30
2022-09-21T19:30:42.270Z,9.30
2022-09-21T19:33:48.809Z,9.30
2022-09-21T19:37:08.117Z,9.30
2022-09-21T19:39:44.658Z,9.30
2022-09-21T19:42:30.341Z,9.40
2022-09-21T19:45:27.761Z,9.40
2022-09-21T19:51:58.266Z,9.40
2022-09-21T19:56:01.086Z,9.30
2022-09-21T20:09:50.176Z,9.30
2022-09-21T20:12:48.485Z,9.30
2022-09-21T20:15:55.136Z,9.30
2022-09-21T20:19:06.073Z,9.30
2022-09-21T20:26:10.787Z,9.30
2022-09-21T20:28:55.905Z,9.40
2022-09-21T20:31:30.096Z,9.30
2022-09-21T20:34:06.537Z,9.30
2022-09-21T20:36:35.679Z,9.30
2022-09-21T20:39:13.544Z,9.20
2022-09-21T20:41:47.269Z,9.20
2022-09-21T20:44:53.174Z,9.10
2022-09-21T20:47:42.191Z,9.00
2022-09-21T20:50:19.931Z,9.10
2022-09-21T20:52:50.119Z,9.20
2022-09-21T20:55:22.907Z,9.20
2022-09-21T20:57:57.469Z,9.10
2022-09-21T21:00:36.967Z,9.20
2022-09-21T21:03:21.226Z,9.20
2022-09-21T21:05:49.895Z,9.20
2022-09-21T21:08:21.843Z,9.20
2022-09-21T21:10:53.055Z,9.20
2022-09-21T21:13:28.469Z,9.10
2022-09-21T21:16:01.819Z,9.10
2022-09-21T21:18:30.325Z,9.10
2022-09-21T21:21:05.536Z,8.90
2022-09-21T21:23:58.646Z,8.80
2022-09-21T21:26:50.204Z,8.80
2022-09-21T21:29:15.691Z,8.80
2022-09-21T21:31:48.188Z,8.80
2022-09-21T21:34:19.586Z,8.80
2022-09-21T21:36:51.372Z,8.80
2022-09-21T21:39:25.138Z,8.70
2022-09-21T21:41:56.746Z,8.80
2022-09-21T21:44:27.743Z,8.70
2022-09-21T21:47:06.190Z,8.60
2022-09-21T21:49:46.776Z,8.60
2022-09-21T21:52:21.185Z,8.50
2022-09-21T21:54:54.487Z,8.50
2022-09-21T21:57:27.192Z,8.50
2022-09-21T22:00:06.695Z,8.60
2022-09-21T22:02:55.437Z,8.60
2022-09-21T22:05:27.223Z,8.50
2022-09-21T22:08:00.913Z,8.50
2022-09-21T22:10:37.913Z,8.50
2022-09-21T22:13:09.790Z,8.50
2022-09-21T22:15:50.735Z,8.60
2022-09-21T22:18:28.035Z,8.50
2022-09-21T22:21:07.465Z,8.50
2022-09-21T22:23:38.573Z,8.40
2022-09-21T22:26:19.221Z,8.40
2022-09-21T22:28:52.402Z,8.40
2022-09-21T22:31:22.551Z,8.40
2022-09-21T22:34:00.241Z,8.40
2022-09-21T22:36:31.384Z,8.30
2022-09-21T22:39:00.357Z,8.20
2022-09-21T22:41:30.852Z,8.10
2022-09-21T22:44:00.630Z,7.90
2022-09-21T22:46:31.283Z,7.90
2022-09-21T22:49:04.149Z,7.80
2022-09-21T22:51:32.748Z,7.70
2022-09-21T22:54:07.327Z,7.60
2022-09-21T22:56:36.640Z,7.60
2022-09-21T22:59:11.061Z,7.70
2022-09-21T23:01:41.431Z,7.80
2022-09-21T23:04:15.773Z,7.70
2022-09-21T23:06:50.017Z,7.70
2022-09-21T23:09:30.409Z,7.90
2022-09-21T23:12:07.063Z,7.90
2022-09-21T23:14:35.595Z,8.00
2022-09-21T23:17:05.755Z,8.00
2022-09-21T23:19:35.476Z,8.00
2022-09-21T23:22:03.940Z,7.90
2022-09-21T23:24:34.837Z,7.80
2022-09-21T23:27:05.051Z,7.80
2022-09-21T23:29:35.537Z,7.80
2022-09-21T23:32:04.294Z,7.90
2022-09-21T23:34:40.338Z,7.90
2022-09-21T23:37:08.793Z,7.90
2022-09-21T23:39:39.422Z,7.80
2022-09-21T23:42:09.021Z,8.00
2022-09-21T23:44:39.019Z,7.90
2022-09-21T23:47:12.853Z,7.80
2022-09-21T23:49:51.697Z,7.70
2022-09-21T23:52:25.335Z,7.70
2022-09-21T23:54:53.586Z,7.60
2022-09-21T23:57:21.766Z,7.40
2022-09-21T23:59:52.658Z,7.30
